sensor_id;sensor_type;location;lat;lon;timestamp;P1;durP1;ratioP1;P2;durP2;ratioP2
73980;SDS011;62348;51.412;5.436;2024-01-15T00:00:37;11.68;;;4.38;;
73980;SDS011;62348;51.412;5.436;2024-01-15T00:03:03;8.48;;;5.10;;
73980;SDS011;62348;51.412;5.436;2024-01-15T00:05:28;4.43;;;2.97;;
73980;SDS011;62348;51.412;5.436;2024-01-15T00:07:54;11.10;;;3.55;;
73980;SDS011;62348;51.412;5.436;2024-01-15T00:10:19;9.95;;;5.10;;
73980;SDS011;62348;51.412;5.436;2024-01-15T00:12:45;6.95;;;3.78;;
73980;SDS011;62348;51.412;5.436;2024-01-15T00:15:10;6.47;;;3.50;;
73980;SDS011;62348;51.412;5.436;2024-01-15T00:17:35;5.95;;;4.80;;
73980;SDS011;62348;51.412;5.436;2024-01-15T00:20:01;4.97;;;3.33;;
73980;SDS011;62348;51.412;5.436;2024-01-15T00:22:27;7.28;;;4.05;;
73980;SDS011;62348;51.412;5.436;2024-01-15T00:24:52;6.07;;;3.42;;
73980;SDS011;62348;51.412;5.436;2024-01-15T00:27:17;5.35;;;3.35;;
73980;SDS011;62348;51.412;5.436;2024-01-15T00:29:43;7.97;;;2.70;;
73980;SDS011;62348;51.412;5.436;2024-01-15T00:32:08;4.20;;;2.60;;
73980;SDS011;62348;51.412;5.436;2024-01-15T00:34:34;2.65;;;1.80;;
73980;SDS011;62348;51.412;5.436;2024-01-15T00:36:59;7.05;;;2.72;;
73980;SDS011;62348;51.412;5.436;2024-01-15T00:39:25;1.10;;;1.02;;
73980;SDS011;62348;51.412;5.436;2024-01-15T00:41:51;1.80;;;1.67;;
73980;SDS011;62348;51.412;5.436;2024-01-15T00:44:16;1.88;;;1.77;;
73980;SDS011;62348;51.412;5.436;2024-01-15T00:46:45;2.35;;;2.00;;
73980;SDS011;62348;51.412;5.436;2024-01-15T00:49:14;2.33;;;2.13;;
73980;SDS011;62348;51.412;5.436;2024-01-15T00:51:40;1.00;;;0.80;;
73980;SDS011;62348;51.412;5.436;2024-01-15T00:54:06;1.05;;;1.05;;
73980;SDS011;62348;51.412;5.436;2024-01-15T00:56:32;1.15;;;0.95;;
73980;SDS011;62348;51.412;5.436;2024-01-15T00:58:57;1.13;;;1.00;;
73980;SDS011;62348;51.412;5.436;2024-01-15T01:01:22;1.70;;;0.88;;
73980;SDS011;62348;51.412;5.436;2024-01-15T01:03:48;0.68;;;0.63;;
73980;SDS011;62348;51.412;5.436;2024-01-15T01:06:13;1.10;;;0.93;;
73980;SDS011;62348;51.412;5.436;2024-01-15T01:08:39;0.43;;;0.38;;
73980;SDS011;62348;51.412;5.436;2024-01-15T01:11:04;0.85;;;0.45;;
73980;SDS011;62348;51.412;5.436;2024-01-15T01:13:31;0.40;;;0.40;;
73980;SDS011;62348;51.412;5.436;2024-01-15T01:15:57;0.95;;;0.47;;
73980;SDS011;62348;51.412;5.436;2024-01-15T01:18:23;2.42;;;0.68;;
73980;SDS011;62348;51.412;5.436;2024-01-15T01:20:48;0.63;;;0.63;;
73980;SDS011;62348;51.412;5.436;2024-01-15T01:23:13;1.55;;;1.02;;
73980;SDS011;62348;51.412;5.436;2024-01-15T01:25:39;0.52;;;0.52;;
73980;SDS011;62348;51.412;5.436;2024-01-15T01:28:04;1.58;;;1.10;;
73980;SDS011;62348;51.412;5.436;2024-01-15T01:30:30;1.95;;;1.75;;
73980;SDS011;62348;51.412;5.436;2024-01-15T01:32:55;1.40;;;0.98;;
73980;SDS011;62348;51.412;5.436;2024-01-15T01:35:20;0.80;;;0.80;;
73980;SDS011;62348;51.412;5.436;2024-01-15T01:37:46;0.70;;;0.70;;
73980;SDS011;62348;51.412;5.436;2024-01-15T01:40:11;2.30;;;1.27;;
73980;SDS011;62348;51.412;5.436;2024-01-15T01:42:37;2.90;;;1.25;;
73980;SDS011;62348;51.412;5.436;2024-01-15T01:45:02;1.45;;;1.35;;
73980;SDS011;62348;51.412;5.436;2024-01-15T01:47:28;4.60;;;2.80;;
73980;SDS011;62348;51.412;5.436;2024-01-15T01:49:54;1.85;;;1.25;;
73980;SDS011;62348;51.412;5.436;2024-01-15T01:52:19;1.05;;;0.85;;
73980;SDS011;62348;51.412;5.436;2024-01-15T01:54:45;1.27;;;1.08;;
73980;SDS011;62348;51.412;5.436;2024-01-15T01:57:11;1.17;;;1.10;;
73980;SDS011;62348;51.412;5.436;2024-01-15T01:59:37;1.40;;;1.30;;
73980;SDS011;62348;51.412;5.436;2024-01-15T02:02:03;6.20;;;2.20;;
73980;SDS011;62348;51.412;5.436;2024-01-15T02:04:30;1.70;;;1.20;;
73980;SDS011;62348;51.412;5.436;2024-01-15T02:06:56;2.90;;;1.27;;
73980;SDS011;62348;51.412;5.436;2024-01-15T02:09:22;5.25;;;1.88;;
73980;SDS011;62348;51.412;5.436;2024-01-15T02:11:47;2.80;;;1.63;;
73980;SDS011;62348;51.412;5.436;2024-01-15T02:14:13;2.65;;;1.38;;
73980;SDS011;62348;51.412;5.436;2024-01-15T02:16:39;4.15;;;1.98;;
73980;SDS011;62348;51.412;5.436;2024-01-15T02:19:04;1.25;;;0.80;;
73980;SDS011;62348;51.412;5.436;2024-01-15T02:21:31;1.33;;;1.05;;
73980;SDS011;62348;51.412;5.436;2024-01-15T02:23:57;1.08;;;0.82;;
73980;SDS011;62348;51.412;5.436;2024-01-15T02:26:23;2.08;;;1.10;;
73980;SDS011;62348;51.412;5.436;2024-01-15T02:28:48;2.47;;;1.38;;
73980;SDS011;62348;51.412;5.436;2024-01-15T02:31:15;0.60;;;0.60;;
73980;SDS011;62348;51.412;5.436;2024-01-15T02:33:41;0.65;;;0.65;;
73980;SDS011;62348;51.412;5.436;2024-01-15T02:36:07;0.65;;;0.52;;
73980;SDS011;62348;51.412;5.436;2024-01-15T02:38:33;0.40;;;0.40;;
73980;SDS011;62348;51.412;5.436;2024-01-15T02:40:58;2.13;;;1.05;;
73980;SDS011;62348;51.412;5.436;2024-01-15T02:43:24;0.75;;;0.57;;
73980;SDS011;62348;51.412;5.436;2024-01-15T02:45:49;1.27;;;0.70;;
73980;SDS011;62348;51.412;5.436;2024-01-15T02:48:15;0.95;;;0.70;;
73980;SDS011;62348;51.412;5.436;2024-01-15T02:50:40;0.45;;;0.45;;
73980;SDS011;62348;51.412;5.436;2024-01-15T02:53:06;0.50;;;0.50;;
73980;SDS011;62348;51.412;5.436;2024-01-15T02:55:31;2.25;;;0.45;;
73980;SDS011;62348;51.412;5.436;2024-01-15T02:57:56;4.20;;;0.77;;
73980;SDS011;62348;51.412;5.436;2024-01-15T03:00:22;0.68;;;0.63;;
73980;SDS011;62348;51.412;5.436;2024-01-15T03:02:48;0.65;;;0.65;;
73980;SDS011;62348;51.412;5.436;2024-01-15T03:05:15;0.50;;;0.50;;
73980;SDS011;62348;51.412;5.436;2024-01-15T03:07:41;1.08;;;0.88;;
73980;SDS011;62348;51.412;5.436;2024-01-15T03:10:06;1.08;;;0.90;;
73980;SDS011;62348;51.412;5.436;2024-01-15T03:12:32;0.55;;;0.55;;
73980;SDS011;62348;51.412;5.436;2024-01-15T03:14:58;0.43;;;0.43;;
73980;SDS011;62348;51.412;5.436;2024-01-15T03:17:23;3.03;;;2.45;;
73980;SDS011;62348;51.412;5.436;2024-01-15T03:19:48;2.17;;;1.17;;
73980;SDS011;62348;51.412;5.436;2024-01-15T03:22:15;1.75;;;1.08;;
73980;SDS011;62348;51.412;5.436;2024-01-15T03:24:40;1.17;;;0.70;;
73980;SDS011;62348;51.412;5.436;2024-01-15T03:27:06;3.25;;;1.90;;
73980;SDS011;62348;51.412;5.436;2024-01-15T03:29:31;1.15;;;1.05;;
73980;SDS011;62348;51.412;5.436;2024-01-15T03:31:56;6.63;;;1.05;;
73980;SDS011;62348;51.412;5.436;2024-01-15T03:34:22;1.13;;;0.93;;
73980;SDS011;62348;51.412;5.436;2024-01-15T03:36:47;1.27;;;0.95;;
73980;SDS011;62348;51.412;5.436;2024-01-15T03:39:13;0.82;;;0.82;;
73980;SDS011;62348;51.412;5.436;2024-01-15T03:41:38;3.38;;;0.90;;
73980;SDS011;62348;51.412;5.436;2024-01-15T03:44:04;1.15;;;1.05;;
73980;SDS011;62348;51.412;5.436;2024-01-15T03:46:29;0.95;;;0.80;;
73980;SDS011;62348;51.412;5.436;2024-01-15T03:48:54;0.65;;;0.63;;
73980;SDS011;62348;51.412;5.436;2024-01-15T03:51:20;1.77;;;1.42;;
73980;SDS011;62348;51.412;5.436;2024-01-15T03:53:45;0.80;;;0.80;;
73980;SDS011;62348;51.412;5.436;2024-01-15T03:56:11;1.65;;;1.13;;
73980;SDS011;62348;51.412;5.436;2024-01-15T03:58:37;0.57;;;0.57;;
73980;SDS011;62348;51.412;5.436;2024-01-15T04:01:02;1.85;;;0.80;;
73980;SDS011;62348;51.412;5.436;2024-01-15T04:03:28;3.42;;;0.70;;
73980;SDS011;62348;51.412;5.436;2024-01-15T04:05:53;3.17;;;0.90;;
73980;SDS011;62348;51.412;5.436;2024-01-15T04:08:19;2.83;;;2.20;;
73980;SDS011;62348;51.412;5.436;2024-01-15T04:10:44;0.60;;;0.60;;
73980;SDS011;62348;51.412;5.436;2024-01-15T04:13:10;0.75;;;0.70;;
73980;SDS011;62348;51.412;5.436;2024-01-15T04:15:35;7.28;;;1.20;;
73980;SDS011;62348;51.412;5.436;2024-01-15T04:18:02;0.75;;;0.55;;
73980;SDS011;62348;51.412;5.436;2024-01-15T04:20:27;1.33;;;1.23;;
73980;SDS011;62348;51.412;5.436;2024-01-15T04:22:53;8.25;;;0.65;;
73980;SDS011;62348;51.412;5.436;2024-01-15T04:25:18;0.98;;;0.50;;
73980;SDS011;62348;51.412;5.436;2024-01-15T04:27:44;6.03;;;1.73;;
73980;SDS011;62348;51.412;5.436;2024-01-15T04:30:09;3.28;;;1.58;;
73980;SDS011;62348;51.412;5.436;2024-01-15T04:32:35;0.60;;;0.50;;
73980;SDS011;62348;51.412;5.436;2024-01-15T04:35:01;2.15;;;1.88;;
73980;SDS011;62348;51.412;5.436;2024-01-15T04:37:26;1.10;;;0.63;;
73980;SDS011;62348;51.412;5.436;2024-01-15T04:39:52;1.13;;;0.50;;
73980;SDS011;62348;51.412;5.436;2024-01-15T04:42:20;1.23;;;0.50;;
73980;SDS011;62348;51.412;5.436;2024-01-15T04:44:46;1.65;;;0.55;;
73980;SDS011;62348;51.412;5.436;2024-01-15T04:47:11;0.22;;;0.22;;
73980;SDS011;62348;51.412;5.436;2024-01-15T04:49:36;0.50;;;0.40;;
73980;SDS011;62348;51.412;5.436;2024-01-15T04:52:02;0.30;;;0.30;;
73980;SDS011;62348;51.412;5.436;2024-01-15T04:54:27;0.43;;;0.43;;
73980;SDS011;62348;51.412;5.436;2024-01-15T04:56:53;0.57;;;0.57;;
73980;SDS011;62348;51.412;5.436;2024-01-15T04:59:18;1.58;;;0.45;;
73980;SDS011;62348;51.412;5.436;2024-01-15T05:01:43;0.47;;;0.47;;
73980;SDS011;62348;51.412;5.436;2024-01-15T05:04:09;1.02;;;0.65;;
73980;SDS011;62348;51.412;5.436;2024-01-15T05:06:34;0.47;;;0.47;;
73980;SDS011;62348;51.412;5.436;2024-01-15T05:09:00;2.05;;;0.50;;
73980;SDS011;62348;51.412;5.436;2024-01-15T05:11:26;0.50;;;0.50;;
73980;SDS011;62348;51.412;5.436;2024-01-15T05:13:51;0.65;;;0.30;;
73980;SDS011;62348;51.412;5.436;2024-01-15T05:16:17;1.75;;;1.65;;
73980;SDS011;62348;51.412;5.436;2024-01-15T05:18:42;2.15;;;0.43;;
73980;SDS011;62348;51.412;5.436;2024-01-15T05:21:08;0.40;;;0.40;;
73980;SDS011;62348;51.412;5.436;2024-01-15T05:23:34;0.40;;;0.40;;
73980;SDS011;62348;51.412;5.436;2024-01-15T05:25:59;0.55;;;0.50;;
73980;SDS011;62348;51.412;5.436;2024-01-15T05:28:30;0.40;;;0.40;;
73980;SDS011;62348;51.412;5.436;2024-01-15T05:30:56;1.65;;;1.55;;
73980;SDS011;62348;51.412;5.436;2024-01-15T05:33:22;0.57;;;0.43;;
73980;SDS011;62348;51.412;5.436;2024-01-15T05:35:48;1.38;;;0.73;;
73980;SDS011;62348;51.412;5.436;2024-01-15T05:38:15;0.40;;;0.40;;
73980;SDS011;62348;51.412;5.436;2024-01-15T05:40:40;0.55;;;0.55;;
73980;SDS011;62348;51.412;5.436;2024-01-15T05:43:06;0.77;;;0.47;;
73980;SDS011;62348;51.412;5.436;2024-01-15T05:45:31;0.50;;;0.40;;
73980;SDS011;62348;51.412;5.436;2024-01-15T05:47:56;0.93;;;0.82;;
73980;SDS011;62348;51.412;5.436;2024-01-15T05:50:22;5.13;;;0.90;;
73980;SDS011;62348;51.412;5.436;2024-01-15T05:52:47;0.57;;;0.45;;
73980;SDS011;62348;51.412;5.436;2024-01-15T05:55:13;1.08;;;0.68;;
73980;SDS011;62348;51.412;5.436;2024-01-15T05:57:39;7.82;;;1.67;;
73980;SDS011;62348;51.412;5.436;2024-01-15T06:00:04;0.68;;;0.63;;
73980;SDS011;62348;51.412;5.436;2024-01-15T06:02:30;0.80;;;0.63;;
73980;SDS011;62348;51.412;5.436;2024-01-15T06:04:55;3.75;;;0.85;;
73980;SDS011;62348;51.412;5.436;2024-01-15T06:07:22;4.75;;;0.93;;
73980;SDS011;62348;51.412;5.436;2024-01-15T06:09:47;0.93;;;0.73;;
73980;SDS011;62348;51.412;5.436;2024-01-15T06:12:13;0.70;;;0.70;;
73980;SDS011;62348;51.412;5.436;2024-01-15T06:14:38;0.95;;;0.80;;
73980;SDS011;62348;51.412;5.436;2024-01-15T06:17:04;0.60;;;0.60;;
73980;SDS011;62348;51.412;5.436;2024-01-15T06:19:29;0.57;;;0.57;;
73980;SDS011;62348;51.412;5.436;2024-01-15T06:21:54;0.60;;;0.60;;
73980;SDS011;62348;51.412;5.436;2024-01-15T06:24:20;4.57;;;0.75;;
73980;SDS011;62348;51.412;5.436;2024-01-15T06:26:48;3.15;;;1.27;;
73980;SDS011;62348;51.412;5.436;2024-01-15T06:29:14;0.50;;;0.50;;
73980;SDS011;62348;51.412;5.436;2024-01-15T06:31:39;2.60;;;1.10;;
73980;SDS011;62348;51.412;5.436;2024-01-15T06:34:04;1.88;;;1.77;;
73980;SDS011;62348;51.412;5.436;2024-01-15T06:36:30;1.50;;;1.40;;
73980;SDS011;62348;51.412;5.436;2024-01-15T06:38:55;1.05;;;0.95;;
73980;SDS011;62348;51.412;5.436;2024-01-15T06:41:21;2.05;;;1.48;;
73980;SDS011;62348;51.412;5.436;2024-01-15T06:43:47;1.40;;;0.85;;
73980;SDS011;62348;51.412;5.436;2024-01-15T06:46:19;1.52;;;0.82;;
73980;SDS011;62348;51.412;5.436;2024-01-15T06:48:45;1.10;;;1.00;;
73980;SDS011;62348;51.412;5.436;2024-01-15T06:51:10;1.38;;;1.27;;
73980;SDS011;62348;51.412;5.436;2024-01-15T06:53:36;0.98;;;0.88;;
73980;SDS011;62348;51.412;5.436;2024-01-15T06:56:01;1.10;;;0.70;;
73980;SDS011;62348;51.412;5.436;2024-01-15T06:58:26;2.17;;;1.20;;
73980;SDS011;62348;51.412;5.436;2024-01-15T07:00:52;2.33;;;0.80;;
73980;SDS011;62348;51.412;5.436;2024-01-15T07:03:17;0.77;;;0.52;;
73980;SDS011;62348;51.412;5.436;2024-01-15T07:05:42;1.27;;;1.17;;
73980;SDS011;62348;51.412;5.436;2024-01-15T07:08:08;0.38;;;0.35;;
73980;SDS011;62348;51.412;5.436;2024-01-15T07:10:33;0.82;;;0.80;;
73980;SDS011;62348;51.412;5.436;2024-01-15T07:12:59;0.35;;;0.35;;
73980;SDS011;62348;51.412;5.436;2024-01-15T07:15:24;1.05;;;1.05;;
73980;SDS011;62348;51.412;5.436;2024-01-15T07:17:50;0.30;;;0.30;;
73980;SDS011;62348;51.412;5.436;2024-01-15T07:20:15;0.55;;;0.32;;
73980;SDS011;62348;51.412;5.436;2024-01-15T07:22:42;0.40;;;0.40;;
73980;SDS011;62348;51.412;5.436;2024-01-15T07:25:07;1.15;;;0.47;;
73980;SDS011;62348;51.412;5.436;2024-01-15T07:27:33;0.30;;;0.30;;
73980;SDS011;62348;51.412;5.436;2024-01-15T07:29:58;0.30;;;0.30;;
73980;SDS011;62348;51.412;5.436;2024-01-15T07:32:29;0.80;;;0.80;;
73980;SDS011;62348;51.412;5.436;2024-01-15T07:34:56;0.30;;;0.30;;
73980;SDS011;62348;51.412;5.436;2024-01-15T07:37:21;4.70;;;1.02;;
73980;SDS011;62348;51.412;5.436;2024-01-15T07:39:48;0.40;;;0.40;;
73980;SDS011;62348;51.412;5.436;2024-01-15T07:42:14;0.32;;;0.32;;
73980;SDS011;62348;51.412;5.436;2024-01-15T07:44:39;0.40;;;0.40;;
73980;SDS011;62348;51.412;5.436;2024-01-15T07:47:05;1.10;;;0.50;;
73980;SDS011;62348;51.412;5.436;2024-01-15T07:49:30;1.08;;;0.75;;
73980;SDS011;62348;51.412;5.436;2024-01-15T07:51:56;0.40;;;0.40;;
73980;SDS011;62348;51.412;5.436;2024-01-15T07:54:21;0.40;;;0.40;;
73980;SDS011;62348;51.412;5.436;2024-01-15T07:56:55;0.40;;;0.40;;
73980;SDS011;62348;51.412;5.436;2024-01-15T07:59:20;0.70;;;0.70;;
73980;SDS011;62348;51.412;5.436;2024-01-15T08:01:46;0.88;;;0.77;;
73980;SDS011;62348;51.412;5.436;2024-01-15T08:04:12;1.00;;;0.70;;
73980;SDS011;62348;51.412;5.436;2024-01-15T08:06:38;2.17;;;0.50;;
73980;SDS011;62348;51.412;5.436;2024-01-15T08:09:03;0.52;;;0.52;;
73980;SDS011;62348;51.412;5.436;2024-01-15T08:11:29;1.33;;;1.00;;
73980;SDS011;62348;51.412;5.436;2024-01-15T08:13:55;0.40;;;0.40;;
73980;SDS011;62348;51.412;5.436;2024-01-15T08:16:20;0.57;;;0.57;;
73980;SDS011;62348;51.412;5.436;2024-01-15T08:18:46;0.63;;;0.63;;
73980;SDS011;62348;51.412;5.436;2024-01-15T08:21:12;3.05;;;1.02;;
73980;SDS011;62348;51.412;5.436;2024-01-15T08:23:38;0.63;;;0.45;;
73980;SDS011;62348;51.412;5.436;2024-01-15T08:26:04;0.75;;;0.75;;
73980;SDS011;62348;51.412;5.436;2024-01-15T08:28:29;0.47;;;0.47;;
73980;SDS011;62348;51.412;5.436;2024-01-15T08:30:55;2.20;;;1.00;;
73980;SDS011;62348;51.412;5.436;2024-01-15T08:33:21;1.20;;;0.80;;
73980;SDS011;62348;51.412;5.436;2024-01-15T08:35:46;0.50;;;0.50;;
73980;SDS011;62348;51.412;5.436;2024-01-15T08:38:12;2.15;;;0.47;;
73980;SDS011;62348;51.412;5.436;2024-01-15T08:40:37;0.40;;;0.40;;
73980;SDS011;62348;51.412;5.436;2024-01-15T08:43:02;0.32;;;0.32;;
73980;SDS011;62348;51.412;5.436;2024-01-15T08:45:28;0.50;;;0.38;;
73980;SDS011;62348;51.412;5.436;2024-01-15T08:47:53;0.68;;;0.68;;
73980;SDS011;62348;51.412;5.436;2024-01-15T08:50:19;0.30;;;0.30;;
73980;SDS011;62348;51.412;5.436;2024-01-15T08:52:44;0.30;;;0.30;;
73980;SDS011;62348;51.412;5.436;2024-01-15T08:55:11;0.50;;;0.30;;
73980;SDS011;62348;51.412;5.436;2024-01-15T08:57:38;0.30;;;0.30;;
73980;SDS011;62348;51.412;5.436;2024-01-15T09:00:03;0.90;;;0.65;;
73980;SDS011;62348;51.412;5.436;2024-01-15T09:02:33;0.38;;;0.38;;
73980;SDS011;62348;51.412;5.436;2024-01-15T09:04:59;0.20;;;0.20;;
73980;SDS011;62348;51.412;5.436;2024-01-15T09:07:25;0.35;;;0.32;;
73980;SDS011;62348;51.412;5.436;2024-01-15T09:09:52;0.30;;;0.30;;
73980;SDS011;62348;51.412;5.436;2024-01-15T09:12:18;1.17;;;0.38;;
73980;SDS011;62348;51.412;5.436;2024-01-15T09:14:45;0.43;;;0.43;;
73980;SDS011;62348;51.412;5.436;2024-01-15T09:17:11;0.50;;;0.40;;
73980;SDS011;62348;51.412;5.436;2024-01-15T09:19:37;0.35;;;0.32;;
73980;SDS011;62348;51.412;5.436;2024-01-15T09:22:04;0.40;;;0.40;;
73980;SDS011;62348;51.412;5.436;2024-01-15T09:24:30;1.45;;;0.45;;
73980;SDS011;62348;51.412;5.436;2024-01-15T09:26:55;1.00;;;0.40;;
73980;SDS011;62348;51.412;5.436;2024-01-15T09:29:21;0.25;;;0.25;;
73980;SDS011;62348;51.412;5.436;2024-01-15T09:31:48;0.45;;;0.45;;
73980;SDS011;62348;51.412;5.436;2024-01-15T09:34:15;0.45;;;0.45;;
73980;SDS011;62348;51.412;5.436;2024-01-15T09:36:40;1.13;;;0.75;;
73980;SDS011;62348;51.412;5.436;2024-01-15T09:39:07;0.35;;;0.35;;
73980;SDS011;62348;51.412;5.436;2024-01-15T09:41:34;0.40;;;0.40;;
73980;SDS011;62348;51.412;5.436;2024-01-15T09:44:01;16.85;;;0.63;;
73980;SDS011;62348;51.412;5.436;2024-01-15T09:46:28;0.43;;;0.43;;
73980;SDS011;62348;51.412;5.436;2024-01-15T09:48:53;0.52;;;0.50;;
73980;SDS011;62348;51.412;5.436;2024-01-15T09:51:19;0.47;;;0.47;;
73980;SDS011;62348;51.412;5.436;2024-01-15T09:53:45;0.45;;;0.45;;
73980;SDS011;62348;51.412;5.436;2024-01-15T09:56:12;0.35;;;0.35;;
73980;SDS011;62348;51.412;5.436;2024-01-15T09:58:39;0.95;;;0.63;;
73980;SDS011;62348;51.412;5.436;2024-01-15T10:01:06;0.57;;;0.57;;
73980;SDS011;62348;51.412;5.436;2024-01-15T10:03:33;0.50;;;0.50;;
73980;SDS011;62348;51.412;5.436;2024-01-15T10:05:59;0.50;;;0.50;;
73980;SDS011;62348;51.412;5.436;2024-01-15T10:08:25;0.28;;;0.28;;
73980;SDS011;62348;51.412;5.436;2024-01-15T10:10:50;2.90;;;0.75;;
73980;SDS011;62348;51.412;5.436;2024-01-15T10:13:16;1.95;;;0.60;;
73980;SDS011;62348;51.412;5.436;2024-01-15T10:15:45;1.15;;;1.13;;
73980;SDS011;62348;51.412;5.436;2024-01-15T10:18:14;0.88;;;0.60;;
73980;SDS011;62348;51.412;5.436;2024-01-15T10:20:39;0.63;;;0.63;;
73980;SDS011;62348;51.412;5.436;2024-01-15T10:23:05;0.55;;;0.45;;
73980;SDS011;62348;51.412;5.436;2024-01-15T10:25:30;0.40;;;0.40;;
73980;SDS011;62348;51.412;5.436;2024-01-15T10:28:02;1.33;;;0.47;;
73980;SDS011;62348;51.412;5.436;2024-01-15T10:30:29;2.90;;;1.05;;
73980;SDS011;62348;51.412;5.436;2024-01-15T10:32:58;2.25;;;1.20;;
73980;SDS011;62348;51.412;5.436;2024-01-15T10:35:29;3.97;;;0.75;;
73980;SDS011;62348;51.412;5.436;2024-01-15T10:37:55;0.63;;;0.63;;
73980;SDS011;62348;51.412;5.436;2024-01-15T10:40:21;1.55;;;0.50;;
73980;SDS011;62348;51.412;5.436;2024-01-15T10:42:47;0.85;;;0.70;;
73980;SDS011;62348;51.412;5.436;2024-01-15T10:45:15;1.25;;;1.17;;
73980;SDS011;62348;51.412;5.436;2024-01-15T10:47:41;1.38;;;1.27;;
73980;SDS011;62348;51.412;5.436;2024-01-15T10:50:07;0.93;;;0.93;;
73980;SDS011;62348;51.412;5.436;2024-01-15T10:52:34;1.85;;;1.05;;
73980;SDS011;62348;51.412;5.436;2024-01-15T10:55:00;1.98;;;1.20;;
73980;SDS011;62348;51.412;5.436;2024-01-15T10:57:31;1.25;;;1.15;;
73980;SDS011;62348;51.412;5.436;2024-01-15T10:59:57;2.53;;;1.02;;
73980;SDS011;62348;51.412;5.436;2024-01-15T11:02:24;1.92;;;1.27;;
73980;SDS011;62348;51.412;5.436;2024-01-15T11:04:51;0.80;;;0.80;;
73980;SDS011;62348;51.412;5.436;2024-01-15T11:07:16;1.25;;;0.73;;
73980;SDS011;62348;51.412;5.436;2024-01-15T11:09:43;0.47;;;0.47;;
73980;SDS011;62348;51.412;5.436;2024-01-15T11:12:15;0.85;;;0.70;;
73980;SDS011;62348;51.412;5.436;2024-01-15T11:14:46;1.15;;;0.68;;
73980;SDS011;62348;51.412;5.436;2024-01-15T11:17:13;0.90;;;0.90;;
73980;SDS011;62348;51.412;5.436;2024-01-15T11:19:43;0.50;;;0.50;;
73980;SDS011;62348;51.412;5.436;2024-01-15T11:22:10;1.70;;;0.50;;
73980;SDS011;62348;51.412;5.436;2024-01-15T11:25:02;1.65;;;1.02;;
73980;SDS011;62348;51.412;5.436;2024-01-15T11:27:42;4.85;;;0.80;;
73980;SDS011;62348;51.412;5.436;2024-01-15T11:30:09;0.60;;;0.60;;
73980;SDS011;62348;51.412;5.436;2024-01-15T11:32:36;0.45;;;0.45;;
73980;SDS011;62348;51.412;5.436;2024-01-15T11:35:02;0.40;;;0.40;;
73980;SDS011;62348;51.412;5.436;2024-01-15T11:37:29;1.10;;;0.80;;
73980;SDS011;62348;51.412;5.436;2024-01-15T11:40:17;2.92;;;0.40;;
73980;SDS011;62348;51.412;5.436;2024-01-15T11:42:44;0.30;;;0.30;;
73980;SDS011;62348;51.412;5.436;2024-01-15T11:45:09;0.47;;;0.47;;
73980;SDS011;62348;51.412;5.436;2024-01-15T11:50:19;0.32;;;0.32;;
73980;SDS011;62348;51.412;5.436;2024-01-15T11:52:49;0.43;;;0.40;;
73980;SDS011;62348;51.412;5.436;2024-01-15T11:55:30;2.17;;;0.40;;
73980;SDS011;62348;51.412;5.436;2024-01-15T11:58:00;0.50;;;0.50;;
73980;SDS011;62348;51.412;5.436;2024-01-15T12:00:27;0.40;;;0.40;;
73980;SDS011;62348;51.412;5.436;2024-01-15T12:02:53;0.70;;;0.70;;
73980;SDS011;62348;51.412;5.436;2024-01-15T12:05:19;2.70;;;0.60;;
73980;SDS011;62348;51.412;5.436;2024-01-15T12:07:46;0.40;;;0.40;;
73980;SDS011;62348;51.412;5.436;2024-01-15T12:10:16;0.40;;;0.40;;
73980;SDS011;62348;51.412;5.436;2024-01-15T12:15:31;0.50;;;0.50;;
73980;SDS011;62348;51.412;5.436;2024-01-15T12:18:01;0.70;;;0.60;;
73980;SDS011;62348;51.412;5.436;2024-01-15T12:20:28;0.30;;;0.30;;
73980;SDS011;62348;51.412;5.436;2024-01-15T12:22:57;0.47;;;0.43;;
73980;SDS011;62348;51.412;5.436;2024-01-15T12:25:23;2.13;;;0.50;;
73980;SDS011;62348;51.412;5.436;2024-01-15T12:27:49;0.30;;;0.30;;
73980;SDS011;62348;51.412;5.436;2024-01-15T12:30:16;2.67;;;1.00;;
73980;SDS011;62348;51.412;5.436;2024-01-15T12:32:42;0.40;;;0.40;;
73980;SDS011;62348;51.412;5.436;2024-01-15T12:35:08;0.20;;;0.20;;
73980;SDS011;62348;51.412;5.436;2024-01-15T12:37:35;0.20;;;0.20;;
73980;SDS011;62348;51.412;5.436;2024-01-15T12:40:02;0.35;;;0.35;;
73980;SDS011;62348;51.412;5.436;2024-01-15T12:42:29;0.63;;;0.60;;
73980;SDS011;62348;51.412;5.436;2024-01-15T12:44:55;0.40;;;0.40;;
73980;SDS011;62348;51.412;5.436;2024-01-15T12:47:21;1.08;;;0.63;;
73980;SDS011;62348;51.412;5.436;2024-01-15T12:49:47;0.68;;;0.50;;
73980;SDS011;62348;51.412;5.436;2024-01-15T12:52:18;0.35;;;0.35;;
73980;SDS011;62348;51.412;5.436;2024-01-15T12:54:44;1.70;;;0.40;;
73980;SDS011;62348;51.412;5.436;2024-01-15T12:57:09;1.95;;;1.38;;
73980;SDS011;62348;51.412;5.436;2024-01-15T12:59:35;0.82;;;0.47;;
73980;SDS011;62348;51.412;5.436;2024-01-15T13:02:00;0.28;;;0.28;;
73980;SDS011;62348;51.412;5.436;2024-01-15T13:04:26;0.30;;;0.30;;
73980;SDS011;62348;51.412;5.436;2024-01-15T13:06:52;0.40;;;0.40;;
73980;SDS011;62348;51.412;5.436;2024-01-15T13:09:18;0.30;;;0.30;;
73980;SDS011;62348;51.412;5.436;2024-01-15T13:11:46;0.50;;;0.50;;
73980;SDS011;62348;51.412;5.436;2024-01-15T13:14:12;0.28;;;0.28;;
73980;SDS011;62348;51.412;5.436;2024-01-15T13:16:39;0.40;;;0.40;;
73980;SDS011;62348;51.412;5.436;2024-01-15T13:19:10;1.00;;;0.50;;
73980;SDS011;62348;51.412;5.436;2024-01-15T13:21:41;0.30;;;0.30;;
73980;SDS011;62348;51.412;5.436;2024-01-15T13:24:07;0.50;;;0.50;;
73980;SDS011;62348;51.412;5.436;2024-01-15T13:26:33;0.50;;;0.50;;
73980;SDS011;62348;51.412;5.436;2024-01-15T13:29:05;0.32;;;0.32;;
73980;SDS011;62348;51.412;5.436;2024-01-15T13:31:31;0.20;;;0.20;;
73980;SDS011;62348;51.412;5.436;2024-01-15T13:33:57;2.75;;;2.28;;
73980;SDS011;62348;51.412;5.436;2024-01-15T13:36:23;0.80;;;0.60;;
73980;SDS011;62348;51.412;5.436;2024-01-15T13:38:52;0.45;;;0.45;;
73980;SDS011;62348;51.412;5.436;2024-01-15T13:41:19;0.70;;;0.70;;
73980;SDS011;62348;51.412;5.436;2024-01-15T13:43:50;0.52;;;0.50;;
73980;SDS011;62348;51.412;5.436;2024-01-15T13:46:16;2.65;;;0.70;;
73980;SDS011;62348;51.412;5.436;2024-01-15T13:48:42;1.30;;;0.52;;
73980;SDS011;62348;51.412;5.436;2024-01-15T13:51:08;0.50;;;0.50;;
73980;SDS011;62348;51.412;5.436;2024-01-15T13:53:34;1.23;;;1.10;;
73980;SDS011;62348;51.412;5.436;2024-01-15T13:55:59;0.47;;;0.47;;
73980;SDS011;62348;51.412;5.436;2024-01-15T13:58:25;1.38;;;0.52;;
73980;SDS011;62348;51.412;5.436;2024-01-15T14:00:51;0.68;;;0.40;;
73980;SDS011;62348;51.412;5.436;2024-01-15T14:03:17;0.65;;;0.65;;
73980;SDS011;62348;51.412;5.436;2024-01-15T14:05:42;0.50;;;0.50;;
73980;SDS011;62348;51.412;5.436;2024-01-15T14:08:08;0.50;;;0.50;;
73980;SDS011;62348;51.412;5.436;2024-01-15T14:10:33;0.70;;;0.70;;
73980;SDS011;62348;51.412;5.436;2024-01-15T14:12:59;0.52;;;0.52;;
73980;SDS011;62348;51.412;5.436;2024-01-15T14:15:24;2.45;;;0.45;;
73980;SDS011;62348;51.412;5.436;2024-01-15T14:17:49;1.75;;;0.90;;
73980;SDS011;62348;51.412;5.436;2024-01-15T14:20:15;0.98;;;0.63;;
73980;SDS011;62348;51.412;5.436;2024-01-15T14:22:40;1.35;;;0.40;;
73980;SDS011;62348;51.412;5.436;2024-01-15T14:25:06;0.35;;;0.32;;
73980;SDS011;62348;51.412;5.436;2024-01-15T14:27:32;0.50;;;0.50;;
73980;SDS011;62348;51.412;5.436;2024-01-15T14:29:57;2.65;;;0.50;;
73980;SDS011;62348;51.412;5.436;2024-01-15T14:32:23;2.45;;;0.52;;
73980;SDS011;62348;51.412;5.436;2024-01-15T14:34:48;0.30;;;0.30;;
73980;SDS011;62348;51.412;5.436;2024-01-15T14:37:14;0.70;;;0.70;;
73980;SDS011;62348;51.412;5.436;2024-01-15T14:39:39;2.17;;;0.68;;
73980;SDS011;62348;51.412;5.436;2024-01-15T14:42:05;0.55;;;0.55;;
73980;SDS011;62348;51.412;5.436;2024-01-15T14:44:31;0.50;;;0.50;;
73980;SDS011;62348;51.412;5.436;2024-01-15T14:46:58;1.40;;;0.90;;